Time;durP1;ratioP1;P1;durP2;ratioP2;P2;SDS_P1;SDS_P2;PMS_P1;PMS_P2;Temp;Humidity;BMP_temperature;BMP_pressure;BME280_temperature;BME280_humidity;BME280_pressure;Samples;Min_cycle;Max_cycle;Signal;HPM_P1;HPM_P2
2022/08/26 00:01:50;;;;;;;;;;;;;;;;;;4993993;28;20381;-75
2022/08/26 00:04:15;;;;;;;;;;;;;;;;;;4994936;28;20317;-75
2022/08/26 00:06:40;;;;;;;;;;;;;;;;;;4994943;28;19914;-75
2022/08/26 00:09:06;;;;;;;;;;;;;;;;;;4994823;28;20289;-74
2022/08/26 00:11:31;;;;;;;;;;;;;;;;;;4993627;28;19914;-75
2022/08/26 00:13:56;;;;;;;;;;;;;;;;;;4977231;28;19940;-74
2022/08/26 00:16:22;;;;;;;;;;;;;;;;;;4961541;28;19914;-74
2022/08/26 00:18:48;;;;;;;;;;;;;;;;;;4993681;28;20032;-74
2022/08/26 00:21:13;;;;;;;;;;;;;;;;;;4977337;28;20156;-75
2022/08/26 00:23:39;;;;;;;;;;;;;;;;;;4976934;28;20285;-76
2022/08/26 00:26:04;;;;;;;;;;;;;;;;;;4994531;28;19960;-74
2022/08/26 00:28:30;;;;;;;;;;;;;;;;;;4993450;28;20431;-75
2022/08/26 00:30:56;;;;;;;;;;;;;;;;;;4994994;28;19914;-74
2022/08/26 00:33:21;;;;;;;;;;;;;;;;;;4993641;28;19914;-75
2022/08/26 00:35:47;;;;;;;;;;;;;;;;;;4977848;28;19914;-76
2022/08/26 00:38:12;;;;;;;;;;;;;;;;;;4993677;28;19913;-74
2022/08/26 00:40:38;;;;;;;;;;;;;;;;;;4977375;28;20400;-74
2022/08/26 00:43:03;;;;;;;;;;;;;;;;;;4977656;28;19918;-75
2022/08/26 00:45:28;;;;;;;;;;;;;;;;;;4993828;28;20338;-74
2022/08/26 00:47:54;;;;;;;;;;;;;;;;;;4995037;28;19913;-75
2022/08/26 00:50:19;;;;;;;;;;;;;;;;;;4995107;28;19914;-75
2022/08/26 00:52:44;;;;;;;;;;;;;;;;;;4994674;28;19928;-75
2022/08/26 00:55:10;;;;;;;;;;;;;;;;;;4976733;28;19913;-75
2022/08/26 00:57:36;;;;;;;;;;;;;;;;;;4993679;28;20328;-75
2022/08/26 01:00:01;;;;;;;;;;;;;;;;;;4993569;28;19917;-74
2022/08/26 01:02:27;;;;;;;;;;;;;;;;;;4976448;28;19920;-75
2022/08/26 01:04:52;;;;;;;;;;;;;;;;;;4993656;28;20047;-74
2022/08/26 01:07:18;;;;;;;;;;;;;;;;;;4993666;28;19960;-75
2022/08/26 01:09:44;;;;;;;;;;;;;;;;;;4992426;28;19999;-74
2022/08/26 01:12:09;;;;;;;;;;;;;;;;;;4993582;28;19973;-74
2022/08/26 01:14:34;;;;;;;;;;;;;;;;;;4993484;28;19914;-74
2022/08/26 01:17:00;;;;;;;;;;;;;;;;;;4993517;28;19914;-74
2022/08/26 01:19:25;;;;;;;;;;;;;;;;;;4993375;28;19924;-74
2022/08/26 01:21:51;;;;;;;;;;;;;;;;;;4976245;28;19918;-75
2022/08/26 01:24:16;;;;;;;;;;;;;;;;;;4992217;28;19914;-75
2022/08/26 01:26:41;;;;;;;;;;;;;;;;;;4992173;28;19914;-74
2022/08/26 01:29:07;;;;;;;;;;;;;;;;;;4993188;28;19917;-74
2022/08/26 01:31:32;;;;;;;;;;;;;;;;;;4992141;28;19928;-74
2022/08/26 01:33:57;;;;;;;;;;;;;;;;;;4975372;28;19914;-75
2022/08/26 01:36:23;;;;;;;;;;;;;;;;;;4991972;28;19945;-75
2022/08/26 01:38:48;;;;;;;;;;;;;;;;;;4993510;28;20292;-75
2022/08/26 01:41:13;;;;;;;;;;;;;;;;;;4975653;28;19924;-75
2022/08/26 01:43:39;;;;;;;;;;;;;;;;;;4991717;28;19914;-74
2022/08/26 01:46:05;;;;;;;;;;;;;;;;;;4993042;28;19914;-74
2022/08/26 01:48:30;;;;;;;;;;;;;;;;;;4992983;28;20438;-76
2022/08/26 01:50:56;;;;;;;;;;;;;;;;;;4975615;28;19914;-75
2022/08/26 01:53:24;;;;;;;;;;;;;;;;;;4975340;28;20334;-75
2022/08/26 01:55:49;;;;;;;;;;;;;;;;;;4991685;28;20024;-75
2022/08/26 01:58:16;;;;;;;;;;;;;;;;;;4993017;28;19914;-74
2022/08/26 02:00:41;;;;;;;;;;;;;;;;;;4975291;28;19929;-73
2022/08/26 02:03:16;;;;;;;;;;;;;;;;;;4975441;28;19914;-74
2022/08/26 02:05:41;;;;;;;;;;;;;;;;;;4992853;28;19921;-73
2022/08/26 02:08:07;;;;;;;;;;;;;;;;;;4991778;28;19914;-73
2022/08/26 02:10:32;;;;;;;;;;;;;;;;;;4991507;28;19920;-75
2022/08/26 02:12:57;;;;;;;;;;;;;;;;;;4992878;28;19972;-76
2022/08/26 02:15:23;;;;;;;;;;;;;;;;;;4992817;28;19920;-74
2022/08/26 02:17:48;;;;;;;;;;;;;;;;;;4975261;28;19957;-74
2022/08/26 02:20:13;;;;;;;;;;;;;;;;;;4991402;28;19918;-75
2022/08/26 02:22:40;;;;;;;;;;;;;;;;;;4975117;28;20296;-75
2022/08/26 02:25:05;;;;;;;;;;;;;;;;;;4992589;28;19914;-74
2022/08/26 02:27:31;;;;;;;;;;;;;;;;;;4975183;28;20004;-75
2022/08/26 02:29:56;;;;;;;;;;;;;;;;;;4991412;28;19917;-75
2022/08/26 02:32:21;;;;;;;;;;;;;;;;;;4975226;28;20333;-75
2022/08/26 02:34:47;;;;;;;;;;;;;;;;;;4992577;28;19965;-75
2022/08/26 02:37:13;;;;;;;;;;;;;;;;;;4992653;28;19914;-75
2022/08/26 02:39:38;;;;;;;;;;;;;;;;;;4974871;28;19917;-76
2022/08/26 02:42:04;;;;;;;;;;;;;;;;;;4975112;28;20000;-73
2022/08/26 02:44:29;;;;;;;;;;;;;;;;;;4991160;28;19917;-74
2022/08/26 02:46:54;;;;;;;;;;;;;;;;;;4976495;28;19936;-73
2022/08/26 02:49:20;;;;;;;;;;;;;;;;;;4996323;28;19913;-75
2022/08/26 02:51:45;;;;;;;;;;;;;;;;;;4978967;28;19921;-75
2022/08/26 02:54:11;;;;;;;;;;;;;;;;;;4995992;28;20297;-74
2022/08/26 02:56:36;;;;;;;;;;;;;;;;;;4994932;28;19917;-74
2022/08/26 02:59:02;;;;;;;;;;;;;;;;;;4978323;28;19918;-75
2022/08/26 03:01:27;;;;;;;;;;;;;;;;;;4978664;28;19960;-73
2022/08/26 03:03:52;;;;;;;;;;;;;;;;;;4994857;28;19960;-73
2022/08/26 03:06:18;;;;;;;;;;;;;;;;;;4996058;28;20336;-74
2022/08/26 03:08:43;;;;;;;;;;;;;;;;;;4962199;28;19914;-75
2022/08/26 03:11:09;;;;;;;;;;;;;;;;;;4995948;28;19917;-74
2022/08/26 03:13:35;;;;;;;;;;;;;;;;;;4994769;28;19914;-73
2022/08/26 03:16:00;;;;;;;;;;;;;;;;;;4995951;28;19952;-74
2022/08/26 03:18:25;;;;;;;;;;;;;;;;;;4995734;28;20262;-75
2022/08/26 03:20:51;;;;;;;;;;;;;;;;;;4977971;28;19918;-74
2022/08/26 03:23:16;;;;;;;;;;;;;;;;;;4995383;28;19914;-74
2022/08/26 03:25:42;;;;;;;;;;;;;;;;;;4978242;28;19914;-75
2022/08/26 03:28:07;;;;;;;;;;;;;;;;;;4978185;28;19914;-75
2022/08/26 03:30:39;;;;;;;;;;;;;;;;;;4978296;28;19949;-75
2022/08/26 03:33:04;;;;;;;;;;;;;;;;;;4994131;28;19920;-74
2022/08/26 03:35:29;;;;;;;;;;;;;;;;;;4978040;28;20300;-75
2022/08/26 03:37:55;;;;;;;;;;;;;;;;;;4977971;28;20005;-73
2022/08/26 03:40:20;;;;;;;;;;;;;;;;;;4995405;28;19943;-75
2022/08/26 03:42:46;;;;;;;;;;;;;;;;;;4978525;28;19914;-74
2022/08/26 03:45:11;;;;;;;;;;;;;;;;;;4980692;28;19933;-73
2022/08/26 03:47:37;;;;;;;;;;;;;;;;;;4995979;28;19917;-74
2022/08/26 03:50:03;;;;;;;;;;;;;;;;;;4980228;28;19964;-75
2022/08/26 03:52:28;;;;;;;;;;;;;;;;;;4995557;28;19930;-74
2022/08/26 03:54:54;;;;;;;;;;;;;;;;;;4995006;28;19978;-73
2022/08/26 03:57:19;;;;;;;;;;;;;;;;;;4976700;28;19914;-74
2022/08/26 03:59:45;;;;;;;;;;;;;;;;;;5003070;22;19940;-74
2022/08/26 04:02:10;;;;;;;;;;;;;;;;;;5032957;28;19913;-74
2022/08/26 04:04:36;;;;;;;;;;;;;;;;;;5016152;28;20369;-75
2022/08/26 04:07:02;;;;;;;;;;;;;;;;;;5034115;28;19913;-74
2022/08/26 04:09:27;;;;;;;;;;;;;;;;;;5037359;28;19986;-74
2022/08/26 04:11:52;;;;;;;;;;;;;;;;;;5054056;28;19916;-74
2022/08/26 04:14:18;;;;;;;;;;;;;;;;;;5054059;28;19942;-75
2022/08/26 04:16:43;;;;;;;;;;;;;;;;;;5054478;28;20372;-74
2022/08/26 04:19:09;;;;;;;;;;;;;;;;;;5036516;28;20376;-74
2022/08/26 04:21:34;;;;;;;;;;;;;;;;;;5052995;28;19913;-75
2022/08/26 04:23:59;;;;;;;;;;;;;;;;;;5053960;28;19952;-74
2022/08/26 04:26:25;;;;;;;;;;;;;;;;;;5052871;28;20427;-74
2022/08/26 04:28:50;;;;;;;;;;;;;;;;;;5053267;28;19928;-74
2022/08/26 04:31:18;;;;;;;;;;;;;;;;;;5020618;28;19997;-75
2022/08/26 04:33:44;;;;;;;;;;;;;;;;;;5052264;28;20287;-76
2022/08/26 04:36:09;;;;;;;;;;;;;;;;;;5036106;28;19913;-76
2022/08/26 04:38:34;;;;;;;;;;;;;;;;;;5052497;28;19943;-77
2022/08/26 04:41:00;;;;;;;;;;;;;;;;;;5052804;28;19920;-76
2022/08/26 04:43:29;;;;;;;;;;;;;;;;;;5052749;28;19916;-75
2022/08/26 04:45:54;;;;;;;;;;;;;;;;;;5054451;28;20007;-75
2022/08/26 04:48:20;;;;;;;;;;;;;;;;;;5054069;28;19952;-75
2022/08/26 04:50:45;;;;;;;;;;;;;;;;;;5053175;28;19913;-75
2022/08/26 04:53:10;;;;;;;;;;;;;;;;;;5054107;28;19908;-73
2022/08/26 04:55:36;;;;;;;;;;;;;;;;;;5054163;28;20016;-74
2022/08/26 04:58:01;;;;;;;;;;;;;;;;;;5054295;28;20383;-74
2022/08/26 05:00:27;;;;;;;;;;;;;;;;;;5054151;28;19917;-75
2022/08/26 05:02:52;;;;;;;;;;;;;;;;;;5051948;28;20011;-76
2022/08/26 05:05:18;;;;;;;;;;;;;;;;;;5018753;28;19986;-75
2022/08/26 05:07:43;;;;;;;;;;;;;;;;;;5053201;28;19975;-75
2022/08/26 05:10:08;;;;;;;;;;;;;;;;;;5052545;28;19980;-76
2022/08/26 05:12:34;;;;;;;;;;;;;;;;;;5051271;28;19920;-76
2022/08/26 05:14:59;;;;;;;;;;;;;;;;;;5051497;28;19909;-75
2022/08/26 05:17:26;;;;;;;;;;;;;;;;;;5051543;28;19917;-75
2022/08/26 05:19:51;;;;;;;;;;;;;;;;;;5052435;28;19917;-75
2022/08/26 05:22:17;;;;;;;;;;;;;;;;;;5052486;28;19912;-75
2022/08/26 05:24:42;;;;;;;;;;;;;;;;;;5034532;28;19982;-74
2022/08/26 05:27:07;;;;;;;;;;;;;;;;;;5051715;28;20015;-74
2022/08/26 05:29:33;;;;;;;;;;;;;;;;;;5052692;28;19991;-75
2022/08/26 05:31:59;;;;;;;;;;;;;;;;;;5034667;28;19909;-75
2022/08/26 05:34:24;;;;;;;;;;;;;;;;;;5052140;28;19913;-75
2022/08/26 05:36:51;;;;;;;;;;;;;;;;;;5051276;28;19912;-75
2022/08/26 05:39:16;;;;;;;;;;;;;;;;;;5034701;28;19917;-75
2022/08/26 05:41:42;;;;;;;;;;;;;;;;;;5051122;28;19924;-75
2022/08/26 05:44:07;;;;;;;;;;;;;;;;;;5034506;28;19923;-76
2022/08/26 05:46:33;;;;;;;;;;;;;;;;;;5052287;28;19995;-75
2022/08/26 05:48:58;;;;;;;;;;;;;;;;;;5055377;28;19955;-75
2022/08/26 05:51:23;;;;;;;;;;;;;;;;;;5059795;28;20156;-75
2022/08/26 05:53:49;;;;;;;;;;;;;;;;;;5058852;28;19913;-74
2022/08/26 05:56:14;;;;;;;;;;;;;;;;;;5040615;28;20264;-75
2022/08/26 05:58:40;;;;;;;;;;;;;;;;;;5060114;28;19913;-74
2022/08/26 06:01:05;;;;;;;;;;;;;;;;;;5058700;28;19948;-74
2022/08/26 06:03:30;;;;;;;;;;;;;;;;;;5037904;28;19913;-75
2022/08/26 06:05:56;;;;;;;;;;;;;;;;;;5055307;28;19912;-74
2022/08/26 06:08:21;;;;;;;;;;;;;;;;;;5057027;28;20423;-75
2022/08/26 06:10:47;;;;;;;;;;;;;;;;;;5057220;28;20369;-74
2022/08/26 06:13:12;;;;;;;;;;;;;;;;;;5038978;28;19924;-75
2022/08/26 06:15:37;;;;;;;;;;;;;;;;;;5052805;28;19967;-74
2022/08/26 06:18:03;;;;;;;;;;;;;;;;;;5053091;28;19912;-74
2022/08/26 06:20:28;;;;;;;;;;;;;;;;;;5053951;28;19917;-75
2022/08/26 06:25:38;;;;;;;;;;;;;;;;;;5055797;28;20411;-76
2022/08/26 06:28:04;;;;;;;;;;;;;;;;;;5054678;28;19909;-74
2022/08/26 06:30:29;;;;;;;;;;;;;;;;;;5054243;28;19913;-76
2022/08/26 06:32:54;;;;;;;;;;;;;;;;;;5055502;28;19957;-75
2022/08/26 06:35:20;;;;;;;;;;;;;;;;;;5054155;28;19913;-76
2022/08/26 06:37:46;;;;;;;;;;;;;;;;;;5055543;28;20056;-76
2022/08/26 06:40:11;;;;;;;;;;;;;;;;;;5055143;28;20426;-76
2022/08/26 06:42:36;;;;;;;;;;;;;;;;;;5054979;28;19966;-77
2022/08/26 06:45:04;;;;;;;;;;;;;;;;;;5054033;28;19912;-74
2022/08/26 06:47:30;;;;;;;;;;;;;;;;;;5037400;28;19919;-74
2022/08/26 06:49:55;;;;;;;;;;;;;;;;;;5053948;28;19955;-75
2022/08/26 06:52:20;;;;;;;;;;;;;;;;;;5055191;28;20004;-76
2022/08/26 06:54:46;;;;;;;;;;;;;;;;;;5037204;28;20434;-77
2022/08/26 06:57:11;;;;;;;;;;;;;;;;;;5037649;28;19920;-75
2022/08/26 06:59:36;;;;;;;;;;;;;;;;;;5037329;28;20410;-75
2022/08/26 07:02:02;;;;;;;;;;;;;;;;;;5055073;28;20007;-76
2022/08/26 07:04:27;;;;;;;;;;;;;;;;;;5054782;28;19909;-75
2022/08/26 07:06:53;;;;;;;;;;;;;;;;;;5055200;28;19955;-75
2022/08/26 07:09:18;;;;;;;;;;;;;;;;;;5055216;28;19917;-75
2022/08/26 07:11:43;;;;;;;;;;;;;;;;;;5054951;28;20302;-76
2022/08/26 07:14:09;;;;;;;;;;;;;;;;;;5054505;28;19982;-75
2022/08/26 07:16:34;;;;;;;;;;;;;;;;;;5054633;28;20349;-74
2022/08/26 07:18:59;;;;;;;;;;;;;;;;;;5053454;28;19921;-75
2022/08/26 07:21:25;;;;;;;;;;;;;;;;;;5053296;28;19913;-76
2022/08/26 07:23:50;;;;;;;;;;;;;;;;;;5053429;28;19924;-76
2022/08/26 07:26:15;;;;;;;;;;;;;;;;;;5054830;28;20015;-76
2022/08/26 07:28:41;;;;;;;;;;;;;;;;;;5053435;28;19920;-76
2022/08/26 07:31:07;;;;;;;;;;;;;;;;;;5036823;28;19913;-74
2022/08/26 07:33:32;;;;;;;;;;;;;;;;;;5053482;28;19963;-76
2022/08/26 07:35:58;;;;;;;;;;;;;;;;;;5053390;28;19952;-76
2022/08/26 07:38:23;;;;;;;;;;;;;;;;;;5036595;28;20334;-76
2022/08/26 07:40:49;;;;;;;;;;;;;;;;;;5054148;28;19952;-76
2022/08/26 07:43:14;;;;;;;;;;;;;;;;;;5052867;28;19913;-76
2022/08/26 07:45:40;;;;;;;;;;;;;;;;;;5036607;28;20343;-74
2022/08/26 07:48:05;;;;;;;;;;;;;;;;;;5052569;28;20346;-74
2022/08/26 07:50:31;;;;;;;;;;;;;;;;;;5053917;28;19936;-74
2022/08/26 07:52:56;;;;;;;;;;;;;;;;;;5052689;28;19913;-76
2022/08/26 07:55:21;;;;;;;;;;;;;;;;;;5052975;28;19913;-75
2022/08/26 07:57:47;;;;;;;;;;;;;;;;;;5054009;28;20372;-75
2022/08/26 08:00:14;;;;;;;;;;;;;;;;;;5052681;28;19997;-76
2022/08/26 08:02:40;;;;;;;;;;;;;;;;;;5052596;28;20019;-76
2022/08/26 08:05:05;;;;;;;;;;;;;;;;;;5054008;28;20031;-75
2022/08/26 08:07:30;;;;;;;;;;;;;;;;;;5053987;28;19936;-74
2022/08/26 08:09:56;;;;;;;;;;;;;;;;;;5053694;28;20296;-75
2022/08/26 08:12:21;;;;;;;;;;;;;;;;;;5052414;28;20007;-76
2022/08/26 08:14:47;;;;;;;;;;;;;;;;;;5052202;28;19991;-75
2022/08/26 08:17:13;;;;;;;;;;;;;;;;;;5052522;28;20384;-75
2022/08/26 08:19:38;;;;;;;;;;;;;;;;;;5052375;28;19920;-75
2022/08/26 08:22:04;;;;;;;;;;;;;;;;;;5036308;28;19952;-75
2022/08/26 08:24:29;;;;;;;;;;;;;;;;;;5052320;28;20003;-75
2022/08/26 08:26:54;;;;;;;;;;;;;;;;;;5052560;28;20331;-75
2022/08/26 08:29:20;;;;;;;;;;;;;;;;;;5053646;28;19919;-76
2022/08/26 08:31:47;;;;;;;;;;;;;;;;;;5052067;28;19967;-75
2022/08/26 08:34:13;;;;;;;;;;;;;;;;;;5053470;28;19925;-75
2022/08/26 08:36:38;;;;;;;;;;;;;;;;;;5052127;28;19943;-75
2022/08/26 08:39:04;;;;;;;;;;;;;;;;;;5053229;28;20327;-76
2022/08/26 08:41:30;;;;;;;;;;;;;;;;;;5052077;28;20004;-75
2022/08/26 08:43:55;;;;;;;;;;;;;;;;;;5053181;28;19920;-74
2022/08/26 08:46:20;;;;;;;;;;;;;;;;;;5051980;28;19932;-75
2022/08/26 08:48:46;;;;;;;;;;;;;;;;;;5053481;28;20253;-76
2022/08/26 08:51:12;;;;;;;;;;;;;;;;;;5035126;28;20019;-75
2022/08/26 08:53:38;;;;;;;;;;;;;;;;;;5052832;28;20446;-75
2022/08/26 08:56:03;;;;;;;;;;;;;;;;;;5052947;28;19909;-75
2022/08/26 08:58:28;;;;;;;;;;;;;;;;;;5052969;28;20335;-76
2022/08/26 09:00:54;;;;;;;;;;;;;;;;;;5051479;28;19917;-76
2022/08/26 09:03:19;;;;;;;;;;;;;;;;;;5052707;28;19919;-75
2022/08/26 09:05:50;;;;;;;;;;;;;;;;;;5053581;28;19917;-75
2022/08/26 09:08:15;;;;;;;;;;;;;;;;;;5052094;28;20291;-75
2022/08/26 09:10:41;;;;;;;;;;;;;;;;;;5035691;28;20011;-75
2022/08/26 09:13:06;;;;;;;;;;;;;;;;;;5053412;28;20011;-76
2022/08/26 09:15:32;;;;;;;;;;;;;;;;;;5053663;28;19913;-75
2022/08/26 09:17:58;;;;;;;;;;;;;;;;;;5053743;28;19959;-75
2022/08/26 09:20:24;;;;;;;;;;;;;;;;;;5052506;28;19917;-75
2022/08/26 09:22:50;;;;;;;;;;;;;;;;;;5053363;28;19913;-75
2022/08/26 09:25:15;;;;;;;;;;;;;;;;;;5053020;28;19913;-74
2022/08/26 09:27:40;;;;;;;;;;;;;;;;;;5053189;28;19981;-75
2022/08/26 09:30:06;;;;;;;;;;;;;;;;;;5052638;28;19913;-74
2022/08/26 09:32:31;;;;;;;;;;;;;;;;;;5034589;28;19913;-74
2022/08/26 09:34:57;;;;;;;;;;;;;;;;;;5050980;28;19920;-76
2022/08/26 09:37:22;;;;;;;;;;;;;;;;;;5051566;28;20417;-74
2022/08/26 09:39:47;;;;;;;;;;;;;;;;;;5053164;28;19955;-75
2022/08/26 09:42:13;;;;;;;;;;;;;;;;;;5052815;28;19958;-74
2022/08/26 09:44:39;;;;;;;;;;;;;;;;;;5052506;28;19925;-75
2022/08/26 09:47:04;;;;;;;;;;;;;;;;;;5052449;28;19979;-74
2022/08/26 09:49:30;;;;;;;;;;;;;;;;;;5051253;28;20334;-75
2022/08/26 09:51:55;;;;;;;;;;;;;;;;;;5052239;28;19952;-75
2022/08/26 09:54:21;;;;;;;;;;;;;;;;;;5051856;28;20372;-75
2022/08/26 09:56:46;;;;;;;;;;;;;;;;;;5051572;28;20007;-73
2022/08/26 09:59:12;;;;;;;;;;;;;;;;;;5033629;28;20014;-74
2022/08/26 10:01:38;;;;;;;;;;;;;;;;;;5063545;22;20161;-75
2022/08/26 10:04:04;;;;;;;;;;;;;;;;;;5053271;28;19912;-75
2022/08/26 10:06:29;;;;;;;;;;;;;;;;;;5053939;28;20499;-75
2022/08/26 10:08:54;;;;;;;;;;;;;;;;;;5054219;28;19927;-74
2022/08/26 10:11:20;;;;;;;;;;;;;;;;;;5071636;28;19913;-75
2022/08/26 10:13:45;;;;;;;;;;;;;;;;;;5036870;28;20494;-75
2022/08/26 10:16:11;;;;;;;;;;;;;;;;;;5071749;28;19912;-74
2022/08/26 10:18:36;;;;;;;;;;;;;;;;;;5053657;28;20448;-74
2022/08/26 10:21:01;;;;;;;;;;;;;;;;;;5053350;28;20383;-75
2022/08/26 10:23:27;;;;;;;;;;;;;;;;;;5071234;28;19916;-75
2022/08/26 10:25:52;;;;;;;;;;;;;;;;;;5053696;28;20015;-75
2022/08/26 10:28:17;;;;;;;;;;;;;;;;;;5036573;28;19958;-75
2022/08/26 10:30:43;;;;;;;;;;;;;;;;;;5071216;28;20398;-75
2022/08/26 10:33:08;;;;;;;;;;;;;;;;;;5071110;28;19912;-76
2022/08/26 10:35:34;;;;;;;;;;;;;;;;;;5053111;28;20268;-76
2022/08/26 10:37:59;;;;;;;;;;;;;;;;;;5070689;28;19913;-75
2022/08/26 10:40:24;;;;;;;;;;;;;;;;;;5053266;28;19960;-75
2022/08/26 10:42:50;;;;;;;;;;;;;;;;;;5071214;28;20272;-76
2022/08/26 10:45:15;;;;;;;;;;;;;;;;;;5071348;28;19999;-75
2022/08/26 10:47:41;;;;;;;;;;;;;;;;;;5036669;28;19920;-76
2022/08/26 10:50:06;;;;;;;;;;;;;;;;;;5071203;28;20451;-76
2022/08/26 10:52:31;;;;;;;;;;;;;;;;;;5071334;28;20299;-74
2022/08/26 10:54:57;;;;;;;;;;;;;;;;;;5071472;28;19913;-76
2022/08/26 10:57:22;;;;;;;;;;;;;;;;;;5053203;28;19912;-76
2022/08/26 10:59:47;;;;;;;;;;;;;;;;;;5071616;28;19959;-76
2022/08/26 11:02:13;;;;;;;;;;;;;;;;;;5071377;28;19916;-76
2022/08/26 11:04:39;;;;;;;;;;;;;;;;;;5053111;28;20375;-74
2022/08/26 11:07:04;;;;;;;;;;;;;;;;;;5037045;28;19913;-74
2022/08/26 11:09:29;;;;;;;;;;;;;;;;;;5075016;28;20287;-75
2022/08/26 11:11:56;;;;;;;;;;;;;;;;;;5057048;28;20391;-75
2022/08/26 11:14:21;;;;;;;;;;;;;;;;;;5056643;28;19917;-75
2022/08/26 11:16:46;;;;;;;;;;;;;;;;;;5074604;28;20008;-75
2022/08/26 11:19:12;;;;;;;;;;;;;;;;;;5040029;28;19917;-74
2022/08/26 11:21:37;;;;;;;;;;;;;;;;;;5074458;28;19913;-75
2022/08/26 11:24:03;;;;;;;;;;;;;;;;;;5074459;28;19953;-76
2022/08/26 11:26:28;;;;;;;;;;;;;;;;;;5040056;28;19913;-76
2022/08/26 11:28:54;;;;;;;;;;;;;;;;;;5040093;28;19912;-75
2022/08/26 11:31:20;;;;;;;;;;;;;;;;;;5074511;28;19923;-76
2022/08/26 11:33:46;;;;;;;;;;;;;;;;;;5056286;28;19916;-76
2022/08/26 11:36:11;;;;;;;;;;;;;;;;;;5056842;28;19912;-76
2022/08/26 11:38:37;;;;;;;;;;;;;;;;;;5074597;28;19912;-76
2022/08/26 11:41:02;;;;;;;;;;;;;;;;;;5074382;28;20359;-76
2022/08/26 11:43:28;;;;;;;;;;;;;;;;;;5056368;28;20332;-75
2022/08/26 11:45:53;;;;;;;;;;;;;;;;;;5039826;28;20296;-76
2022/08/26 11:48:19;;;;;;;;;;;;;;;;;;5056216;28;19920;-75
2022/08/26 11:50:44;;;;;;;;;;;;;;;;;;5056222;28;19944;-74
2022/08/26 11:53:10;;;;;;;;;;;;;;;;;;5056063;28;19909;-76
2022/08/26 11:55:35;;;;;;;;;;;;;;;;;;5073932;28;19919;-75
2022/08/26 11:58:01;;;;;;;;;;;;;;;;;;5039402;28;19919;-76
2022/08/26 12:00:26;;;;;;;;;;;;;;;;;;5073900;28;19920;-75
2022/08/26 12:02:51;;;;;;;;;;;;;;;;;;5073734;28;19912;-76
2022/08/26 12:05:17;;;;;;;;;;;;;;;;;;5073986;28;20406;-75
2022/08/26 12:07:43;;;;;;;;;;;;;;;;;;5073661;28;19912;-76
2022/08/26 12:10:08;;;;;;;;;;;;;;;;;;5073770;28;19939;-75
2022/08/26 12:12:33;;;;;;;;;;;;;;;;;;5073568;28;19919;-75
2022/08/26 12:14:59;;;;;;;;;;;;;;;;;;5073695;28;20350;-75
2022/08/26 12:17:24;;;;;;;;;;;;;;;;;;5055606;28;19913;-76
2022/08/26 12:19:49;;;;;;;;;;;;;;;;;;5073180;28;19916;-75
2022/08/26 12:22:15;;;;;;;;;;;;;;;;;;5073596;28;20329;-74
2022/08/26 12:24:41;;;;;;;;;;;;;;;;;;5073392;28;20440;-74
2022/08/26 12:27:07;;;;;;;;;;;;;;;;;;5055157;28;19912;-74
2022/08/26 12:29:32;;;;;;;;;;;;;;;;;;5055639;28;19935;-73
2022/08/26 12:31:58;;;;;;;;;;;;;;;;;;5055195;28;20295;-75
2022/08/26 12:34:24;;;;;;;;;;;;;;;;;;5073131;28;19995;-75
2022/08/26 12:36:50;;;;;;;;;;;;;;;;;;5073152;28;19919;-75
2022/08/26 12:39:15;;;;;;;;;;;;;;;;;;5072850;28;19917;-74
2022/08/26 12:41:41;;;;;;;;;;;;;;;;;;5073054;28;20337;-75
2022/08/26 12:44:06;;;;;;;;;;;;;;;;;;5054958;28;20390;-75
2022/08/26 12:46:32;;;;;;;;;;;;;;;;;;5054942;28;19978;-74
2022/08/26 12:49:00;;;;;;;;;;;;;;;;;;5055342;28;19916;-75
2022/08/26 12:51:25;;;;;;;;;;;;;;;;;;5072739;28;20019;-74
2022/08/26 12:53:51;;;;;;;;;;;;;;;;;;5054614;28;20003;-75
2022/08/26 12:56:16;;;;;;;;;;;;;;;;;;5072829;28;19944;-75
2022/08/26 12:58:42;;;;;;;;;;;;;;;;;;5055023;28;19938;-75
2022/08/26 13:01:07;;;;;;;;;;;;;;;;;;5072267;28;20453;-75
2022/08/26 13:03:33;;;;;;;;;;;;;;;;;;5072500;28;19999;-74
2022/08/26 13:05:58;;;;;;;;;;;;;;;;;;5072684;28;20368;-75
2022/08/26 13:08:23;;;;;;;;;;;;;;;;;;5038293;28;19919;-74
2022/08/26 13:10:49;;;;;;;;;;;;;;;;;;5072297;28;19912;-75
2022/08/26 13:13:14;;;;;;;;;;;;;;;;;;5072474;28;20357;-75
2022/08/26 13:15:39;;;;;;;;;;;;;;;;;;5072600;28;19915;-74
2022/08/26 13:18:05;;;;;;;;;;;;;;;;;;5072761;28;19912;-74
2022/08/26 13:20:31;;;;;;;;;;;;;;;;;;5037683;28;19916;-74
2022/08/26 13:22:56;;;;;;;;;;;;;;;;;;5072119;28;20398;-74
2022/08/26 13:25:21;;;;;;;;;;;;;;;;;;5072111;28;19917;-74
2022/08/26 13:27:47;;;;;;;;;;;;;;;;;;5054470;28;20379;-76
2022/08/26 13:30:13;;;;;;;;;;;;;;;;;;5071529;28;19920;-76
2022/08/26 13:32:38;;;;;;;;;;;;;;;;;;5070473;28;19912;-75
2022/08/26 13:35:03;;;;;;;;;;;;;;;;;;5034720;28;20488;-76
2022/08/26 13:37:29;;;;;;;;;;;;;;;;;;5052424;28;19913;-76
2022/08/26 13:39:54;;;;;;;;;;;;;;;;;;5051965;28;19916;-76
2022/08/26 13:42:19;;;;;;;;;;;;;;;;;;5050882;28;19999;-74
2022/08/26 13:44:49;;;;;;;;;;;;;;;;;;5050770;28;19913;-74
2022/08/26 13:47:14;;;;;;;;;;;;;;;;;;5018077;28;19920;-74
2022/08/26 13:49:40;;;;;;;;;;;;;;;;;;5037718;28;19908;-75
2022/08/26 13:52:05;;;;;;;;;;;;;;;;;;5054529;28;20295;-75
2022/08/26 13:54:30;;;;;;;;;;;;;;;;;;5072144;28;20375;-74
2022/08/26 13:56:56;;;;;;;;;;;;;;;;;;5072016;28;20439;-75
2022/08/26 13:59:21;;;;;;;;;;;;;;;;;;5071980;28;19916;-74
2022/08/26 14:01:46;;;;;;;;;;;;;;;;;;5036961;28;19920;-76
2022/08/26 14:04:12;;;;;;;;;;;;;;;;;;5037186;28;19912;-75
2022/08/26 14:06:37;;;;;;;;;;;;;;;;;;5071772;28;19970;-76
2022/08/26 14:09:02;;;;;;;;;;;;;;;;;;5054890;28;19913;-76
2022/08/26 14:11:28;;;;;;;;;;;;;;;;;;5033698;28;20007;-75
2022/08/26 14:13:54;;;;;;;;;;;;;;;;;;5051323;28;20007;-73
2022/08/26 14:16:19;;;;;;;;;;;;;;;;;;5051701;28;20318;-74
2022/08/26 14:18:44;;;;;;;;;;;;;;;;;;5052607;28;19936;-75
2022/08/26 14:21:10;;;;;;;;;;;;;;;;;;5050245;28;20011;-74
2022/08/26 14:23:35;;;;;;;;;;;;;;;;;;5033379;28;19955;-76
2022/08/26 14:26:06;;;;;;;;;;;;;;;;;;5051644;28;19913;-75
2022/08/26 14:28:32;;;;;;;;;;;;;;;;;;5051712;28;19913;-75
2022/08/26 14:30:58;;;;;;;;;;;;;;;;;;5001718;28;19916;-74
2022/08/26 14:33:23;;;;;;;;;;;;;;;;;;5051472;28;20032;-75
2022/08/26 14:35:49;;;;;;;;;;;;;;;;;;5051918;28;19913;-75
2022/08/26 14:38:15;;;;;;;;;;;;;;;;;;5065682;28;20383;-76
2022/08/26 14:40:43;;;;;;;;;;;;;;;;;;5053214;28;19999;-74
2022/08/26 14:43:08;;;;;;;;;;;;;;;;;;5074745;28;19916;-74
2022/08/26 14:45:36;;;;;;;;;;;;;;;;;;5057282;28;19912;-74
2022/08/26 14:48:02;;;;;;;;;;;;;;;;;;5075371;28;20458;-76
2022/08/26 14:50:27;;;;;;;;;;;;;;;;;;5060400;28;19955;-78
2022/08/26 14:55:37;;;;;;;;;;;;;;;;;;5043443;28;19917;-76
2022/08/26 14:58:02;;;;;;;;;;;;;;;;;;5055586;28;20398;-77
2022/08/26 15:00:28;;;;;;;;;;;;;;;;;;5057007;28;20026;-79
2022/08/26 15:02:53;;;;;;;;;;;;;;;;;;5038286;28;19913;-77
2022/08/26 15:05:19;;;;;;;;;;;;;;;;;;5055151;28;19919;-78
2022/08/26 15:07:45;;;;;;;;;;;;;;;;;;5042095;28;19963;-76
2022/08/26 15:10:12;;;;;;;;;;;;;;;;;;5041108;28;19955;-77
2022/08/26 15:12:37;;;;;;;;;;;;;;;;;;5056658;28;19919;-77
2022/08/26 15:15:03;;;;;;;;;;;;;;;;;;5074766;28;19999;-76
2022/08/26 15:17:30;;;;;;;;;;;;;;;;;;5074974;28;20013;-76
2022/08/26 15:19:55;;;;;;;;;;;;;;;;;;5056862;28;19913;-76
2022/08/26 15:22:20;;;;;;;;;;;;;;;;;;5056788;28;19991;-76
2022/08/26 15:24:46;;;;;;;;;;;;;;;;;;5074850;28;20446;-76
2022/08/26 15:27:11;;;;;;;;;;;;;;;;;;5047569;28;19913;-77
2022/08/26 15:29:36;;;;;;;;;;;;;;;;;;5054569;28;20046;-76
2022/08/26 15:32:02;;;;;;;;;;;;;;;;;;5055005;28;19974;-76
2022/08/26 15:34:27;;;;;;;;;;;;;;;;;;5054973;28;19943;-76
2022/08/26 15:36:52;;;;;;;;;;;;;;;;;;5055037;28;19913;-76
2022/08/26 15:39:18;;;;;;;;;;;;;;;;;;5053021;28;19919;-75
2022/08/26 15:41:43;;;;;;;;;;;;;;;;;;5054368;28;20438;-76
2022/08/26 15:44:08;;;;;;;;;;;;;;;;;;5060689;28;19912;-76
2022/08/26 15:46:50;;;;;;;;;;;;;;;;;;5057356;28;19935;-75
2022/08/26 15:49:15;;;;;;;;;;;;;;;;;;5025642;28;19912;-76
2022/08/26 15:51:40;;;;;;;;;;;;;;;;;;5074177;28;20299;-75
2022/08/26 15:54:06;;;;;;;;;;;;;;;;;;5073242;28;19958;-77
2022/08/26 15:56:31;;;;;;;;;;;;;;;;;;5056250;28;19928;-76
2022/08/26 15:58:57;;;;;;;;;;;;;;;;;;5056355;28;19917;-75
2022/08/26 16:01:22;;;;;;;;;;;;;;;;;;5051742;23;19925;-76
2022/08/26 16:03:47;;;;;;;;;;;;;;;;;;5056144;28;20347;-81
2022/08/26 16:06:13;;;;;;;;;;;;;;;;;;5036434;28;19934;-77
2022/08/26 16:08:38;;;;;;;;;;;;;;;;;;5053692;28;20283;-76
2022/08/26 16:11:03;;;;;;;;;;;;;;;;;;5036019;28;20342;-77
2022/08/26 16:13:29;;;;;;;;;;;;;;;;;;5053783;28;20265;-75
2022/08/26 16:15:54;;;;;;;;;;;;;;;;;;5019692;28;20450;-77
2022/08/26 16:18:19;;;;;;;;;;;;;;;;;;5039857;28;19913;-77
2022/08/26 16:20:46;;;;;;;;;;;;;;;;;;5033579;28;20323;-74
2022/08/26 16:23:11;;;;;;;;;;;;;;;;;;5033300;28;19913;-76
2022/08/26 16:25:37;;;;;;;;;;;;;;;;;;5032387;28;19943;-75
2022/08/26 16:28:02;;;;;;;;;;;;;;;;;;5015565;28;19921;-75
2022/08/26 16:30:28;;;;;;;;;;;;;;;;;;5033501;28;19913;-77
2022/08/26 16:32:56;;;;;;;;;;;;;;;;;;5031727;28;20281;-76
2022/08/26 16:35:22;;;;;;;;;;;;;;;;;;5028515;28;19912;-77
2022/08/26 16:37:47;;;;;;;;;;;;;;;;;;5053180;28;19913;-74
2022/08/26 16:40:12;;;;;;;;;;;;;;;;;;5053091;28;19916;-76